Time;durP1;ratioP1;P1;durP2;ratioP2;P2;SDS_P1;SDS_P2;PMS_P1;PMS_P2;Temp;Humidity;BMP_temperature;BMP_pressure;BME280_temperature;BME280_humidity;BME280_pressure;Samples;Min_cycle;Max_cycle;Signal;HPM_P1;HPM_P2
2024/01/30 00:02:16;;;;;;;3.80;2.47;;;20.10;77.40;;;;;;5044994;28;20024;-66
2024/01/30 00:04:42;;;;;;;4.70;2.20;;;20.10;77.40;;;;;;5041507;28;20024;-66
2024/01/30 00:07:07;;;;;;;5.47;2.38;;;20.10;77.40;;;;;;5039467;28;20037;-69
2024/01/30 00:09:33;;;;;;;6.25;2.53;;;20.10;77.60;;;;;;5041162;28;20493;-69
2024/01/30 00:11:59;;;;;;;5.47;2.20;;;20.20;77.60;;;;;;5047593;28;20055;-68
2024/01/30 00:14:24;;;;;;;4.53;2.30;;;20.20;77.60;;;;;;5043386;28;20552;-68
2024/01/30 00:16:51;;;;;;;5.63;2.47;;;20.20;77.40;;;;;;5041343;28;20547;-67
2024/01/30 00:19:16;;;;;;;3.38;2.28;;;20.20;77.40;;;;;;5041107;28;20026;-68
2024/01/30 00:21:42;;;;;;;4.00;2.13;;;20.20;77.40;;;;;;5043088;28;20063;-68
2024/01/30 00:24:08;;;;;;;2.92;1.73;;;20.20;77.40;;;;;;5046033;28;20463;-70
2024/01/30 00:26:33;;;;;;;4.25;2.20;;;20.20;77.40;;;;;;5041285;28;20021;-65
2024/01/30 00:28:59;;;;;;;5.43;2.15;;;20.20;77.40;;;;;;5041220;28;20025;-66
2024/01/30 00:31:25;;;;;;;3.95;2.15;;;20.20;77.40;;;;;;5040196;28;20030;-66
2024/01/30 00:33:50;;;;;;;4.63;2.22;;;20.20;77.30;;;;;;5045614;28;20036;-67
2024/01/30 00:36:16;;;;;;;3.00;1.90;;;20.20;77.50;;;;;;5045171;28;20027;-67
2024/01/30 00:38:42;;;;;;;5.30;2.30;;;20.20;77.40;;;;;;5040785;28;20473;-67
2024/01/30 00:41:10;;;;;;;3.50;2.05;;;20.20;77.40;;;;;;5040162;28;20067;-67
2024/01/30 00:43:37;;;;;;;4.28;2.50;;;20.20;77.40;;;;;;5041715;28;20017;-64
2024/01/30 00:46:03;;;;;;;4.28;2.50;;;20.20;77.50;;;;;;5047607;28;20059;-67
2024/01/30 00:48:28;;;;;;;4.10;1.90;;;20.20;77.50;;;;;;5041496;28;20017;-66
2024/01/30 00:50:54;;;;;;;3.80;1.90;;;20.20;77.40;;;;;;5043797;28;20020;-68
2024/01/30 00:53:19;;;;;;;1.83;1.65;;;20.20;77.50;;;;;;5040177;28;20092;-68
2024/01/30 00:55:45;;;;;;;3.83;1.77;;;20.20;77.50;;;;;;5044058;28;20040;-68
2024/01/30 00:58:11;;;;;;;3.15;2.13;;;20.20;77.50;;;;;;5048217;28;20012;-68
2024/01/30 01:00:37;;;;;;;2.83;1.92;;;20.20;77.50;;;;;;5040071;28;20021;-68
2024/01/30 01:03:03;;;;;;;3.83;1.85;;;20.20;77.60;;;;;;5040418;28;20433;-68
2024/01/30 01:05:29;;;;;;;6.10;2.45;;;20.10;77.60;;;;;;5040421;28;20025;-67
2024/01/30 01:07:54;;;;;;;3.28;1.80;;;20.20;78.50;;;;;;5046173;28;20020;-66
2024/01/30 01:10:20;;;;;;;7.93;2.45;;;20.20;78.30;;;;;;5042729;28;20032;-67
2024/01/30 01:12:46;;;;;;;6.93;2.78;;;20.30;78.40;;;;;;5040373;28;20032;-67
2024/01/30 01:15:12;;;;;;;4.63;1.90;;;20.30;78.30;;;;;;5040522;28;20097;-67
2024/01/30 01:17:38;;;;;;;14.40;2.17;;;20.30;78.20;;;;;;5042116;28;20028;-68
2024/01/30 01:20:06;;;;;;;4.88;1.95;;;20.30;78.00;;;;;;5055309;28;20017;-67
2024/01/30 01:22:32;;;;;;;3.40;1.80;;;20.30;77.90;;;;;;5058593;28;20024;-67
2024/01/30 01:24:58;;;;;;;3.13;1.88;;;20.30;78.00;;;;;;5052608;28;20707;-67
2024/01/30 01:27:23;;;;;;;4.10;2.40;;;20.30;77.80;;;;;;5056878;28;20040;-66
2024/01/30 01:29:49;;;;;;;5.85;2.55;;;20.20;77.80;;;;;;5045672;28;20025;-67
2024/01/30 01:32:15;;;;;;;3.92;2.20;;;20.30;77.80;;;;;;5044038;28;20020;-67
2024/01/30 01:34:40;;;;;;;2.88;1.80;;;20.20;77.80;;;;;;5040025;28;20025;-66
2024/01/30 01:37:07;;;;;;;3.63;1.80;;;20.30;77.70;;;;;;5039978;28;20022;-66
2024/01/30 01:39:32;;;;;;;2.00;1.65;;;20.30;77.70;;;;;;5039851;28;20025;-67
2024/01/30 01:41:58;;;;;;;4.30;1.92;;;20.20;77.60;;;;;;5049079;28;20621;-67
2024/01/30 01:44:24;;;;;;;3.63;2.20;;;20.20;77.60;;;;;;5042572;28;20093;-65
2024/01/30 01:46:50;;;;;;;5.50;2.20;;;20.20;77.70;;;;;;5040301;28;20029;-66
2024/01/30 01:49:19;;;;;;;4.10;2.20;;;20.30;77.90;;;;;;5040046;28;20121;-65
2024/01/30 01:51:47;;;;;;;3.25;2.17;;;20.20;77.70;;;;;;5042833;28;20030;-66
2024/01/30 01:54:14;;;;;;;5.72;2.00;;;20.30;77.60;;;;;;5045358;28;20028;-67
2024/01/30 01:56:40;;;;;;;4.18;1.63;;;20.20;77.80;;;;;;5037260;28;20029;-65
2024/01/30 01:59:08;;;;;;;2.67;1.50;;;20.20;77.80;;;;;;5050651;28;20017;-66
2024/01/30 02:01:36;;;;;;;6.18;1.85;;;20.20;77.60;;;;;;5048104;28;20028;-65
2024/01/30 02:04:01;;;;;;;2.33;1.50;;;20.20;77.70;;;;;;5046421;28;20025;-67
2024/01/30 02:06:27;;;;;;;4.32;1.85;;;20.20;77.60;;;;;;5052533;28;20032;-68
2024/01/30 02:08:54;;;;;;;3.88;1.75;;;20.20;77.60;;;;;;5039953;28;20017;-68
2024/01/30 02:11:22;;;;;;;4.70;1.92;;;20.20;77.40;;;;;;5044950;28;20029;-67
2024/01/30 02:13:49;;;;;;;5.30;1.90;;;20.20;77.70;;;;;;5051219;28;20064;-68
2024/01/30 02:16:14;;;;;;;3.42;2.03;;;20.30;77.60;;;;;;5056239;28;20503;-68
2024/01/30 02:18:45;;;;;;;4.80;1.70;;;20.30;77.60;;;;;;5061402;28;20033;-68
2024/01/30 02:21:11;;;;;;;4.20;2.15;;;20.30;77.60;;;;;;5063619;28;20432;-68
2024/01/30 02:23:37;;;;;;;7.97;1.67;;;20.20;77.40;;;;;;5053742;28;20104;-64
2024/01/30 02:26:03;;;;;;;3.13;2.08;;;20.30;77.60;;;;;;5065227;28;20040;-67
2024/01/30 02:28:29;;;;;;;4.30;1.73;;;20.30;77.40;;;;;;5058246;28;20028;-67
2024/01/30 02:30:54;;;;;;;4.75;1.65;;;20.20;77.30;;;;;;5059978;28;20198;-67
2024/01/30 02:33:21;;;;;;;2.50;1.67;;;20.30;77.30;;;;;;5068878;28;20050;-67
2024/01/30 02:35:47;;;;;;;1.83;1.50;;;20.30;77.20;;;;;;5057620;28;20016;-67
2024/01/30 02:38:13;;;;;;;4.13;1.88;;;20.20;77.40;;;;;;5068713;28;20111;-67
2024/01/30 02:40:39;;;;;;;3.03;1.95;;;20.20;77.30;;;;;;5062589;28;20501;-67
2024/01/30 02:43:05;;;;;;;3.95;1.67;;;20.20;77.40;;;;;;5061461;28;20104;-66
2024/01/30 02:45:30;;;;;;;3.65;2.17;;;20.20;77.50;;;;;;5070224;28;20024;-67
2024/01/30 02:47:56;;;;;;;1.83;1.60;;;20.20;77.50;;;;;;5055994;28;20388;-67
2024/01/30 02:50:22;;;;;;;2.15;1.60;;;20.20;77.60;;;;;;5066509;28;20104;-65
2024/01/30 02:52:47;;;;;;;2.72;1.95;;;20.20;77.60;;;;;;5064181;28;20030;-67
2024/01/30 02:55:13;;;;;;;2.70;1.85;;;20.20;77.60;;;;;;5060134;28;20071;-67
2024/01/30 02:57:39;;;;;;;4.45;1.90;;;20.20;77.60;;;;;;5070281;28;20111;-65
2024/01/30 03:00:06;;;;;;;2.70;1.83;;;20.20;77.60;;;;;;5057311;28;20020;-65
2024/01/30 03:02:32;;;;;;;4.22;1.80;;;20.20;77.60;;;;;;5065453;28;20033;-67
2024/01/30 03:04:58;;;;;;;5.72;1.67;;;20.20;77.60;;;;;;5055636;28;20098;-67
2024/01/30 03:07:24;;;;;;;2.33;1.58;;;20.20;77.70;;;;;;5067709;28;20488;-67
2024/01/30 03:09:49;;;;;;;2.92;1.67;;;20.20;77.80;;;;;;5056757;28;20090;-67
2024/01/30 03:12:15;;;;;;;2.08;1.48;;;20.20;77.70;;;;;;5067016;28;20453;-68
2024/01/30 03:14:40;;;;;;;1.33;1.23;;;20.20;77.70;;;;;;5062585;28;20531;-67
2024/01/30 03:17:06;;;;;;;1.80;1.52;;;20.20;77.70;;;;;;5060811;28;20025;-65
2024/01/30 03:19:32;;;;;;;2.92;1.80;;;20.20;77.70;;;;;;5069973;28;20407;-67
2024/01/30 03:21:57;;;;;;;3.15;1.50;;;20.20;78.00;;;;;;5054919;28;20093;-65
2024/01/30 03:24:23;;;;;;;4.00;1.75;;;20.20;78.00;;;;;;5066434;28;20028;-66
2024/01/30 03:26:49;;;;;;;4.40;2.15;;;20.20;77.80;;;;;;5064483;28;20025;-63
2024/01/30 03:29:15;;;;;;;6.45;2.30;;;20.20;77.90;;;;;;5059765;28;20143;-65
2024/01/30 03:31:41;;;;;;;2.85;1.83;;;20.20;77.90;;;;;;5069972;28;20059;-66
2024/01/30 03:34:06;;;;;;;4.18;2.05;;;20.20;77.80;;;;;;5058231;28;20028;-65
2024/01/30 03:36:34;;;;;;;2.83;1.92;;;20.20;77.80;;;;;;5065027;28;20494;-67
2024/01/30 03:39:00;;;;;;;5.15;1.60;;;20.20;78.00;;;;;;5065149;28;20392;-66
2024/01/30 03:41:25;;;;;;;3.45;1.88;;;20.20;77.80;;;;;;5056410;28;20017;-67
2024/01/30 03:43:51;;;;;;;3.70;1.48;;;20.20;77.90;;;;;;5068506;28;20531;-67
2024/01/30 03:46:17;;;;;;;1.75;1.48;;;20.20;77.70;;;;;;5058978;28;20031;-66
2024/01/30 03:48:42;;;;;;;4.18;1.58;;;20.20;77.70;;;;;;5061954;28;20558;-67
2024/01/30 03:51:08;;;;;;;3.35;1.55;;;20.20;77.60;;;;;;5065524;28;20408;-67
2024/01/30 03:53:35;;;;;;;2.05;1.45;;;20.20;77.50;;;;;;5056318;28;20037;-66
2024/01/30 03:56:00;;;;;;;3.25;1.42;;;20.20;77.50;;;;;;5069101;28;20024;-67
2024/01/30 03:58:26;;;;;;;4.30;1.90;;;20.20;77.40;;;;;;5059977;28;20024;-67
2024/01/30 04:00:52;;;;;;;2.35;1.33;;;20.20;77.40;;;;;;5061178;28;20029;-66
2024/01/30 04:03:17;;;;;;;3.47;1.67;;;20.20;77.40;;;;;;5066843;28;20054;-67
2024/01/30 04:05:43;;;;;;;3.38;1.95;;;20.20;77.30;;;;;;5055971;28;20071;-66
2024/01/30 04:08:10;;;;;;;2.17;1.50;;;20.20;77.60;;;;;;5067645;28;20036;-67
2024/01/30 04:10:35;;;;;;;2.40;1.67;;;20.20;77.50;;;;;;5060545;28;20488;-67
2024/01/30 04:13:01;;;;;;;4.10;1.65;;;20.20;77.50;;;;;;5060051;28;20025;-66
2024/01/30 04:15:29;;;;;;;2.45;1.70;;;20.20;77.40;;;;;;5068265;28;20036;-66
2024/01/30 04:17:58;;;;;;;3.95;1.48;;;20.20;77.50;;;;;;5055710;28;20017;-68
2024/01/30 04:20:24;;;;;;;2.10;1.40;;;20.20;77.40;;;;;;5063767;28;20025;-68
2024/01/30 04:22:50;;;;;;;1.75;1.00;;;20.20;77.60;;;;;;5062558;28;20032;-67
2024/01/30 04:25:15;;;;;;;2.40;1.50;;;20.20;77.70;;;;;;5056920;28;20400;-68
2024/01/30 04:27:41;;;;;;;2.95;1.58;;;20.20;77.70;;;;;;5068520;28;20395;-67
2024/01/30 04:30:07;;;;;;;3.22;1.70;;;20.20;77.70;;;;;;5056120;28;20035;-68
2024/01/30 04:32:33;;;;;;;5.25;1.73;;;20.20;77.70;;;;;;5063553;28;20056;-67
2024/01/30 04:34:59;;;;;;;2.38;1.40;;;20.20;77.90;;;;;;5063991;28;20064;-67
2024/01/30 04:37:25;;;;;;;5.13;1.83;;;20.20;77.90;;;;;;5056686;28;20021;-67
2024/01/30 04:39:51;;;;;;;5.03;1.90;;;20.20;78.10;;;;;;5067105;28;20502;-67
2024/01/30 04:42:17;;;;;;;5.35;1.27;;;20.20;78.00;;;;;;5057146;28;20008;-67
2024/01/30 04:44:42;;;;;;;3.45;2.10;;;20.20;77.80;;;;;;5062386;28;20032;-67
2024/01/30 04:47:10;;;;;;;4.15;1.63;;;20.10;77.80;;;;;;5065047;28;20849;-67
2024/01/30 04:49:36;;;;;;;4.05;1.50;;;20.20;77.90;;;;;;5055000;28;20103;-66
2024/01/30 04:52:02;;;;;;;6.10;1.77;;;20.20;77.90;;;;;;5067202;28;20100;-67
2024/01/30 04:54:27;;;;;;;5.00;1.73;;;20.20;78.10;;;;;;5058895;28;20246;-67
2024/01/30 04:56:53;;;;;;;2.88;1.30;;;20.20;77.90;;;;;;5060439;28;20489;-66
2024/01/30 04:59:18;;;;;;;6.07;1.92;;;20.20;77.70;;;;;;5065973;28;20025;-68
2024/01/30 05:01:44;;;;;;;4.28;1.85;;;20.20;77.90;;;;;;5053952;28;20047;-67
2024/01/30 05:04:11;;;;;;;2.80;1.30;;;20.20;77.60;;;;;;5066399;28;20480;-69
2024/01/30 05:06:36;;;;;;;2.72;1.48;;;20.20;77.80;;;;;;5060309;28;20044;-65
2024/01/30 05:09:04;;;;;;;4.22;1.58;;;20.20;77.80;;;;;;5059027;28;20056;-67
2024/01/30 05:11:30;;;;;;;4.70;1.58;;;20.20;77.90;;;;;;5066690;28;20111;-66
2024/01/30 05:13:56;;;;;;;5.40;1.45;;;20.20;78.00;;;;;;5054481;28;20388;-66
2024/01/30 05:16:21;;;;;;;2.35;1.50;;;20.10;78.00;;;;;;5064451;28;20025;-67
2024/01/30 05:18:47;;;;;;;4.88;1.58;;;20.10;78.00;;;;;;5061375;28;20031;-66
2024/01/30 05:21:12;;;;;;;5.93;1.60;;;20.10;78.10;;;;;;5056668;28;20102;-69
2024/01/30 05:23:38;;;;;;;3.42;1.42;;;20.10;78.30;;;;;;5067508;28;20036;-65
2024/01/30 05:26:04;;;;;;;6.05;2.05;;;20.10;78.30;;;;;;5055203;28;20103;-66
2024/01/30 05:28:30;;;;;;;5.18;1.85;;;20.10;78.40;;;;;;5063614;28;20485;-68
2024/01/30 05:30:56;;;;;;;5.20;1.58;;;20.10;78.50;;;;;;5061568;28;20028;-67
2024/01/30 05:33:21;;;;;;;4.65;1.23;;;20.10;78.30;;;;;;5055848;28;20108;-68
2024/01/30 05:35:48;;;;;;;2.55;1.45;;;20.10;78.30;;;;;;5067229;28;20086;-67
2024/01/30 05:38:15;;;;;;;11.75;1.58;;;20.10;78.60;;;;;;5054326;28;20013;-67
2024/01/30 05:40:40;;;;;;;7.47;1.58;;;20.10;78.70;;;;;;5059365;28;20430;-66
2024/01/30 05:43:06;;;;;;;4.15;1.50;;;20.10;78.70;;;;;;5057912;28;20025;-67
2024/01/30 05:45:34;;;;;;;6.38;1.45;;;20.10;78.80;;;;;;5067292;28;20455;-68
2024/01/30 05:47:59;;;;;;;10.70;1.38;;;20.10;78.70;;;;;;5054545;28;20021;-68
2024/01/30 05:50:26;;;;;;;5.07;1.50;;;20.10;78.90;;;;;;5063053;28;20542;-68
2024/01/30 05:52:51;;;;;;;9.50;2.00;;;20.10;79.00;;;;;;5061504;28;20023;-68
2024/01/30 05:55:17;;;;;;;4.22;1.70;;;20.10;79.20;;;;;;5056135;28;20024;-70
2024/01/30 05:57:43;;;;;;;18.67;2.00;;;20.10;79.20;;;;;;5052122;28;20021;-67
2024/01/30 06:00:08;;;;;;;12.38;1.80;;;20.20;79.40;;;;;;5065118;28;20103;-69
2024/01/30 06:02:34;;;;;;;4.40;1.80;;;20.20;79.40;;;;;;5058857;28;20044;-68
2024/01/30 06:04:59;;;;;;;6.65;1.90;;;20.20;79.40;;;;;;5058293;28;20021;-66
2024/01/30 06:07:25;;;;;;;10.38;1.58;;;20.20;79.40;;;;;;5070137;28;20029;-67
2024/01/30 06:09:51;;;;;;;14.98;1.33;;;20.20;79.20;;;;;;5057612;28;20163;-66
2024/01/30 06:12:16;;;;;;;6.88;1.45;;;20.20;79.20;;;;;;5068195;28;20017;-66
2024/01/30 06:14:42;;;;;;;8.57;1.60;;;20.20;79.10;;;;;;5063815;28;20078;-67
2024/01/30 06:17:08;;;;;;;3.30;1.63;;;20.20;78.60;;;;;;5061445;28;20025;-66
2024/01/30 06:19:34;;;;;;;18.77;3.40;;;20.30;78.10;;;;;;5069613;28;20027;-67
2024/01/30 06:22:00;;;;;;;20.75;2.53;;;20.30;78.60;;;;;;5057500;28;20640;-68
2024/01/30 06:24:26;;;;;;;12.68;2.53;;;20.30;78.00;;;;;;5066787;28;20513;-65
2024/01/30 06:26:51;;;;;;;23.80;2.58;;;20.30;78.00;;;;;;5065132;28;20048;-68
2024/01/30 06:29:17;;;;;;;22.98;3.55;;;20.30;77.80;;;;;;5059649;28;20025;-64
2024/01/30 06:31:42;;;;;;;45.33;3.28;;;20.30;78.20;;;;;;5069784;28;20038;-67
2024/01/30 06:34:09;;;;;;;18.27;2.95;;;20.30;78.00;;;;;;5058803;28;20032;-67
2024/01/30 06:36:35;;;;;;;23.92;3.00;;;20.30;77.70;;;;;;5065605;28;20017;-68
2024/01/30 06:39:02;;;;;;;11.55;2.97;;;20.30;77.80;;;;;;5065911;28;20040;-65
2024/01/30 06:41:27;;;;;;;18.83;2.33;;;20.20;77.90;;;;;;5057848;28;20083;-67
2024/01/30 06:43:53;;;;;;;13.90;2.25;;;20.20;77.90;;;;;;5062375;28;20502;-67
2024/01/30 06:46:19;;;;;;;35.97;4.20;;;20.20;77.70;;;;;;5067614;28;20084;-67
2024/01/30 06:48:44;;;;;;;35.80;4.28;;;20.20;77.40;;;;;;5062521;28;20029;-67
2024/01/30 06:51:11;;;;;;;24.58;4.72;;;20.20;77.20;;;;;;5059875;28;20056;-67
2024/01/30 06:53:37;;;;;;;18.13;4.38;;;20.20;77.20;;;;;;5070257;28;20048;-67
2024/01/30 06:56:03;;;;;;;17.08;2.70;;;20.10;77.20;;;;;;5057019;28;20378;-64
2024/01/30 06:58:28;;;;;;;13.25;3.45;;;20.10;77.20;;;;;;5066579;28;20116;-67
2024/01/30 07:00:54;;;;;;;15.30;2.95;;;20.10;77.20;;;;;;5064156;28;20076;-65
2024/01/30 07:03:20;;;;;;;10.73;2.58;;;20.00;77.20;;;;;;5058739;28;20033;-66
2024/01/30 07:05:45;;;;;;;9.43;2.45;;;20.00;77.20;;;;;;5057019;28;20245;-67
2024/01/30 07:08:11;;;;;;;11.52;2.65;;;20.00;77.20;;;;;;5063971;28;20544;-67
2024/01/30 07:10:37;;;;;;;14.70;2.60;;;20.00;77.10;;;;;;5050431;28;20040;-67
2024/01/30 07:13:04;;;;;;;8.05;2.60;;;20.00;77.10;;;;;;5060288;28;20035;-67
2024/01/30 07:15:29;;;;;;;13.95;2.08;;;20.00;77.20;;;;;;5069167;28;20028;-67
2024/01/30 07:17:55;;;;;;;12.30;2.22;;;20.00;77.20;;;;;;5056554;28;20032;-67
2024/01/30 07:20:20;;;;;;;8.73;2.42;;;20.00;77.30;;;;;;5066288;28;20029;-66
2024/01/30 07:22:47;;;;;;;8.82;2.95;;;20.00;77.30;;;;;;5062596;28;20099;-65
2024/01/30 07:25:13;;;;;;;15.05;2.58;;;20.00;77.30;;;;;;5059829;28;20384;-67
2024/01/30 07:27:38;;;;;;;7.05;1.95;;;20.00;77.30;;;;;;5071608;28;20032;-63
2024/01/30 07:30:05;;;;;;;20.52;3.38;;;20.00;77.20;;;;;;5058670;28;20024;-66
2024/01/30 07:32:31;;;;;;;37.20;4.88;;;20.00;77.50;;;;;;5068228;28;20028;-69
2024/01/30 07:34:57;;;;;;;23.70;4.10;;;20.00;77.30;;;;;;5065461;28;20020;-65
2024/01/30 07:37:22;;;;;;;18.02;12.05;;;20.10;77.70;;;;;;5057723;28;20079;-71
2024/01/30 07:39:48;;;;;;;15.45;10.95;;;18.60;45.00;;;;;;5069071;28;20407;-72
2024/01/30 07:42:14;;;;;;;18.58;13.07;;;16.40;44.60;;;;;;5058021;28;20043;-71
2024/01/30 07:44:39;;;;;;;18.80;12.73;;;14.70;45.60;;;;;;5063857;28;20115;-67
2024/01/30 07:47:05;;;;;;;16.02;11.93;;;13.40;48.70;;;;;;5065471;28;20459;-68
2024/01/30 07:49:32;;;;;;;19.40;11.35;;;12.50;50.60;;;;;;5056532;28;20032;-69
2024/01/30 07:51:57;;;;;;;19.58;12.63;;;11.90;52.20;;;;;;5066557;28;20040;-69
2024/01/30 07:54:23;;;;;;;15.23;9.43;;;11.40;52.10;;;;;;5052183;28;20022;-67
2024/01/30 07:56:49;;;;;;;15.20;10.13;;;11.30;56.10;;;;;;5053544;28;20076;-67
2024/01/30 07:59:15;;;;;;;15.07;9.77;;;12.00;59.80;;;;;;5051304;28;20122;-68
2024/01/30 08:01:41;;;;;;;13.00;9.30;;;12.90;64.80;;;;;;5051235;28;20021;-68
2024/01/30 08:04:06;;;;;;;14.35;9.18;;;13.50;66.90;;;;;;5051951;28;20040;-69
2024/01/30 08:06:32;;;;;;;12.52;8.80;;;14.20;67.60;;;;;;5051945;28;20032;-69
2024/01/30 08:08:59;;;;;;;15.45;7.45;;;14.80;67.40;;;;;;5051449;28;20024;-67
2024/01/30 08:11:26;;;;;;;10.18;6.88;;;15.20;67.30;;;;;;5051501;28;20025;-66
2024/01/30 08:13:55;;;;;;;10.10;7.60;;;15.60;66.90;;;;;;5052186;28;20067;-67
2024/01/30 08:16:20;;;;;;;11.75;7.30;;;16.00;66.90;;;;;;5039439;28;20045;-66
2024/01/30 08:18:46;;;;;;;12.48;7.05;;;;;;;;;;5052378;28;20110;-68
2024/01/30 08:21:13;;;;;;;10.63;6.70;;;;;;;;;;5051511;28;20493;-67
2024/01/30 08:23:39;;;;;;;9.30;6.43;;;;;;;;;;5052361;28;20412;-69
2024/01/30 08:26:05;;;;;;;8.48;6.28;;;;;;;;;;5052617;28;20025;-69
2024/01/30 08:28:32;;;;;;;12.05;6.05;;;;;;;;;;5051978;28;20033;-69
2024/01/30 08:30:57;;;;;;;7.68;5.25;;;17.40;66.70;;;;;;5051401;28;20416;-69
2024/01/30 08:33:23;;;;;;;8.45;5.60;;;17.50;66.80;;;;;;5051459;28;20033;-67
2024/01/30 08:35:48;;;;;;;7.97;5.13;;;17.60;66.80;;;;;;5051764;28;20100;-69
2024/01/30 08:38:14;;;;;;;8.77;5.43;;;17.80;66.80;;;;;;5052154;28;20028;-69
2024/01/30 08:40:40;;;;;;;7.00;5.18;;;18.00;66.80;;;;;;5051290;28;20396;-70
2024/01/30 08:43:05;;;;;;;7.72;4.80;;;18.10;66.80;;;;;;5051863;28;20024;-70
2024/01/30 08:45:31;;;;;;;10.23;4.97;;;18.20;66.70;;;;;;5051995;28;20099;-70
2024/01/30 08:47:57;;;;;;;7.80;4.43;;;18.30;66.60;;;;;;5051859;28;20068;-70
2024/01/30 08:50:22;;;;;;;6.05;4.53;;;18.40;66.60;;;;;;5051166;28;20091;-70
2024/01/30 08:52:48;;;;;;;6.30;4.30;;;18.50;66.40;;;;;;5051875;28;20021;-70
2024/01/30 08:55:14;;;;;;;8.45;4.70;;;18.50;66.40;;;;;;5051632;28;20143;-69
2024/01/30 08:57:39;;;;;;;6.40;4.32;;;18.60;66.30;;;;;;5052220;28;20035;-69
2024/01/30 09:00:08;;;;;;;6.43;4.38;;;18.70;66.20;;;;;;5050975;28;20043;-68
2024/01/30 09:02:34;;;;;;;6.22;4.70;;;18.80;66.10;;;;;;5051698;28;20396;-69
2024/01/30 09:05:00;;;;;;;8.05;4.53;;;18.80;66.10;;;;;;5051702;28;20017;-69
2024/01/30 09:07:25;;;;;;;4.93;3.88;;;18.90;66.00;;;;;;5051846;28;20040;-68
2024/01/30 09:09:51;;;;;;;5.93;3.60;;;18.90;66.00;;;;;;5051511;28;20032;-68
2024/01/30 09:12:17;;;;;;;5.95;3.65;;;19.00;65.90;;;;;;5049515;28;20029;-69
2024/01/30 09:14:42;;;;;;;3.95;3.38;;;19.00;65.90;;;;;;5050983;28;20104;-69
2024/01/30 09:17:08;;;;;;;6.40;3.75;;;19.00;65.80;;;;;;5051257;28;20455;-69
2024/01/30 09:19:34;;;;;;;4.75;3.42;;;19.00;65.80;;;;;;5050021;28;20028;-69
2024/01/30 09:22:00;;;;;;;4.57;3.13;;;19.10;65.80;;;;;;5051247;28;20039;-69
2024/01/30 09:24:26;;;;;;;3.78;3.30;;;19.10;65.80;;;;;;5050514;28;20473;-68
2024/01/30 09:26:52;;;;;;;6.38;3.40;;;19.20;65.80;;;;;;5049690;28;20104;-67
2024/01/30 09:29:17;;;;;;;8.40;4.20;;;19.20;65.80;;;;;;5049595;28;20690;-69
2024/01/30 09:31:45;;;;;;;4.72;3.03;;;19.20;65.80;;;;;;5049382;28;20029;-68
2024/01/30 09:34:10;;;;;;;9.43;3.92;;;19.20;65.80;;;;;;5050568;28;20821;-69
2024/01/30 09:36:36;;;;;;;4.43;3.33;;;19.30;65.90;;;;;;5050566;28;20025;-69
2024/01/30 09:39:02;;;;;;;3.83;3.05;;;19.30;65.90;;;;;;5051088;28;20043;-68
2024/01/30 09:41:28;;;;;;;6.95;3.67;;;19.30;65.90;;;;;;5049772;28;20025;-69
2024/01/30 09:43:56;;;;;;;4.72;3.15;;;19.30;65.90;;;;;;5051152;28;20052;-69
2024/01/30 09:46:26;;;;;;;4.53;2.70;;;19.40;65.90;;;;;;5051114;28;20029;-69
2024/01/30 09:48:52;;;;;;;6.95;3.65;;;19.40;65.90;;;;;;5051256;28;20021;-69
2024/01/30 09:51:19;;;;;;;3.97;2.78;;;19.40;65.80;;;;;;5050560;28;20048;-68
2024/01/30 09:53:44;;;;;;;4.00;2.90;;;19.40;65.90;;;;;;5050772;28;20116;-68
2024/01/30 09:56:11;;;;;;;3.35;2.95;;;19.40;65.90;;;;;;5049628;28;20096;-69
2024/01/30 09:58:36;;;;;;;4.78;2.83;;;19.40;65.90;;;;;;5051201;28;20025;-69
2024/01/30 10:01:02;;;;;;;4.63;2.97;;;19.40;65.90;;;;;;5050321;28;20032;-69
2024/01/30 10:03:28;;;;;;;3.95;2.65;;;19.50;65.90;;;;;;5050818;28;20037;-69
2024/01/30 10:05:55;;;;;;;3.13;2.60;;;19.40;65.80;;;;;;5050977;28;20036;-69
2024/01/30 10:08:21;;;;;;;3.70;2.78;;;19.50;65.90;;;;;;5051004;28;20104;-68
2024/01/30 10:10:48;;;;;;;5.22;3.08;;;19.50;65.90;;;;;;5050180;28;20102;-68
2024/01/30 10:13:13;;;;;;;3.00;2.70;;;19.50;65.90;;;;;;5050905;28;20025;-68
2024/01/30 10:15:40;;;;;;;2.78;2.55;;;19.50;65.90;;;;;;5050898;28;20027;-68
2024/01/30 10:18:06;;;;;;;3.40;2.45;;;19.50;65.90;;;;;;5050943;28;20558;-68
2024/01/30 10:20:32;;;;;;;4.43;2.70;;;19.50;65.90;;;;;;5050213;28;20083;-69
2024/01/30 10:22:58;;;;;;;3.03;2.72;;;19.50;65.80;;;;;;5050791;28;20025;-68
2024/01/30 10:25:26;;;;;;;3.10;2.60;;;19.50;65.80;;;;;;5051174;28;20027;-68
2024/01/30 10:27:58;;;;;;;3.55;2.70;;;19.50;65.70;;;;;;5050770;28;20025;-68
2024/01/30 10:30:24;;;;;;;2.65;2.45;;;19.50;65.60;;;;;;5050028;28;20542;-68
2024/01/30 10:32:51;;;;;;;3.15;2.60;;;19.50;65.60;;;;;;5050724;28;20029;-69
2024/01/30 10:35:17;;;;;;;2.97;2.63;;;19.50;65.60;;;;;;5050697;28;20516;-68
2024/01/30 10:37:48;;;;;;;2.08;1.88;;;19.50;65.80;;;;;;5050816;28;20021;-69
2024/01/30 10:40:15;;;;;;;3.22;2.40;;;19.50;65.90;;;;;;5050073;28;20021;-69
2024/01/30 10:42:45;;;;;;;2.63;2.17;;;19.50;65.80;;;;;;5050336;28;20025;-68
2024/01/30 10:45:12;;;;;;;2.80;2.50;;;19.50;65.80;;;;;;5050949;28;20036;-68
2024/01/30 10:47:40;;;;;;;4.72;2.45;;;19.50;65.80;;;;;;5050445;28;20032;-69
2024/01/30 10:50:09;;;;;;;2.53;2.33;;;19.50;65.90;;;;;;5049754;28;20028;-68
2024/01/30 10:52:34;;;;;;;2.30;2.10;;;19.40;66.00;;;;;;5053399;28;20464;-68
2024/01/30 10:55:00;;;;;;;2.33;2.13;;;19.50;66.00;;;;;;5054190;28;20060;-68
2024/01/30 10:57:27;;;;;;;2.55;2.35;;;19.40;66.10;;;;;;5054089;28;20024;-69
2024/01/30 10:59:57;;;;;;;2.35;2.13;;;19.40;66.20;;;;;;5054162;28;20027;-67
2024/01/30 11:02:23;;;;;;;3.30;2.40;;;19.40;66.20;;;;;;5053732;28;20507;-68
2024/01/30 11:04:50;;;;;;;3.03;2.22;;;19.40;66.30;;;;;;5054141;28;20025;-68
2024/01/30 11:07:24;;;;;;;3.35;2.75;;;19.40;66.40;;;;;;5053873;28;20036;-68
2024/01/30 11:09:50;;;;;;;2.85;2.00;;;19.30;66.50;;;;;;5053666;28;20036;-68
2024/01/30 11:12:16;;;;;;;2.50;2.30;;;19.30;66.60;;;;;;5053522;28;20400;-69
2024/01/30 11:14:43;;;;;;;2.40;2.20;;;19.30;66.70;;;;;;5053870;28;20029;-69
2024/01/30 11:17:12;;;;;;;2.40;1.98;;;19.30;66.70;;;;;;5053859;28;20071;-68
2024/01/30 11:19:38;;;;;;;2.15;1.88;;;19.30;66.80;;;;;;5053549;28;20036;-68
2024/01/30 11:22:04;;;;;;;2.00;1.80;;;19.30;66.80;;;;;;5053124;28;20021;-67
2024/01/30 11:24:30;;;;;;;3.05;2.15;;;19.30;66.90;;;;;;5053725;28;20017;-69
2024/01/30 11:26:57;;;;;;;2.20;1.83;;;19.30;66.90;;;;;;5052218;28;20086;-68
2024/01/30 11:29:30;;;;;;;2.78;1.83;;;19.20;66.90;;;;;;5052375;28;20035;-68
2024/01/30 11:31:59;;;;;;;2.00;1.80;;;19.20;66.90;;;;;;5052910;28;20032;-68
2024/01/30 11:34:25;;;;;;;3.97;2.70;;;19.20;67.00;;;;;;5052030;28;20025;-66
2024/01/30 11:36:59;;;;;;;20.88;3.40;;;19.20;67.00;;;;;;5053311;28;20495;-66
2024/01/30 11:39:29;;;;;;;11.07;3.72;;;19.20;67.00;;;;;;5053194;28;20029;-66
2024/01/30 11:41:55;;;;;;;5.67;3.57;;;19.20;67.00;;;;;;5052782;28;20350;-67
2024/01/30 11:44:22;;;;;;;5.07;3.33;;;19.20;67.00;;;;;;5053168;28;20496;-66
2024/01/30 11:46:49;;;;;;;3.53;3.22;;;19.20;67.00;;;;;;5052283;28;20040;-67
2024/01/30 11:49:16;;;;;;;6.47;3.47;;;19.30;67.10;;;;;;5053340;28;20491;-67
2024/01/30 11:51:42;;;;;;;14.05;3.83;;;19.30;67.20;;;;;;5052465;28;20028;-67
2024/01/30 11:54:08;;;;;;;18.98;4.05;;;19.30;67.50;;;;;;5053034;28;20049;-68
2024/01/30 11:56:33;;;;;;;9.73;3.53;;;19.30;67.60;;;;;;5053023;28;20017;-68
2024/01/30 11:59:00;;;;;;;16.23;3.92;;;19.30;67.50;;;;;;5053066;28;20392;-68
2024/01/30 12:01:26;;;;;;;12.43;3.40;;;19.40;67.40;;;;;;5051889;28;20025;-69
2024/01/30 12:03:52;;;;;;;10.55;4.20;;;19.30;67.40;;;;;;5051452;28;20563;-67
2024/01/30 12:06:18;;;;;;;10.77;3.60;;;19.30;67.70;;;;;;5052758;28;20317;-65
2024/01/30 12:09:00;;;;;;;15.57;3.47;;;19.30;67.80;;;;;;5052780;28;20033;-66
2024/01/30 12:11:30;;;;;;;9.88;3.25;;;19.30;67.70;;;;;;5052144;28;20025;-66
2024/01/30 12:13:56;;;;;;;8.18;3.72;;;19.30;67.70;;;;;;5052423;28;20100;-67
2024/01/30 12:16:22;;;;;;;10.55;3.42;;;19.30;67.80;;;;;;5052681;28;20526;-67
2024/01/30 12:18:48;;;;;;;7.53;3.17;;;19.30;67.90;;;;;;5051915;28;20029;-65
2024/01/30 12:21:17;;;;;;;11.52;3.67;;;19.30;68.00;;;;;;5051952;28;20032;-68
2024/01/30 12:23:43;;;;;;;9.40;2.97;;;19.30;67.90;;;;;;5052418;28;20025;-67
2024/01/30 12:26:09;;;;;;;9.73;3.20;;;19.30;68.00;;;;;;5052386;28;20381;-67
2024/01/30 12:28:35;;;;;;;6.32;3.70;;;19.30;68.00;;;;;;5053311;28;20029;-67
2024/01/30 12:31:04;;;;;;;7.55;3.15;;;19.20;68.10;;;;;;5051737;28;20035;-67
2024/01/30 12:33:31;;;;;;;8.82;3.05;;;19.20;68.10;;;;;;5052175;28;20492;-67
2024/01/30 12:35:57;;;;;;;6.03;2.92;;;19.20;68.30;;;;;;5052330;28;20029;-68
2024/01/30 12:38:24;;;;;;;6.40;3.45;;;19.20;68.40;;;;;;5052140;28;20341;-67
2024/01/30 12:40:54;;;;;;;6.18;3.10;;;19.20;68.40;;;;;;5051295;28;20429;-67